sensor_id;sensor_type;location;lat;lon;timestamp;pressure;altitude;pressure_sealevel;temperature;humidity
54329;BME280;40710;51.120;13.136;2022-09-16T00:00:18;98532.59;;;16.76;63.92
54329;BME280;40710;51.120;13.136;2022-09-16T00:02:43;98534.69;;;16.63;64.03
54329;BME280;40710;51.120;13.136;2022-09-16T00:05:08;98533.28;;;16.69;63.64
54329;BME280;40710;51.120;13.136;2022-09-16T00:07:33;98527.97;;;16.69;62.92
54329;BME280;40710;51.120;13.136;2022-09-16T00:09:57;98527.28;;;16.67;62.33
54329;BME280;40710;51.120;13.136;2022-09-16T00:12:22;98522.97;;;16.85;62.53
54329;BME280;40710;51.120;13.136;2022-09-16T00:14:46;98518.88;;;16.81;61.70
54329;BME280;40710;51.120;13.136;2022-09-16T00:17:12;98516.13;;;16.63;61.46
54329;BME280;40710;51.120;13.136;2022-09-16T00:19:36;98522.41;;;16.62;61.10
54329;BME280;40710;51.120;13.136;2022-09-16T00:22:00;98516.84;;;16.55;60.91
54329;BME280;40710;51.120;13.136;2022-09-16T00:24:25;98517.94;;;16.43;61.04
54329;BME280;40710;51.120;13.136;2022-09-16T00:26:49;98518.09;;;16.41;61.20
54329;BME280;40710;51.120;13.136;2022-09-16T00:29:14;98517.94;;;16.62;60.75
54329;BME280;40710;51.120;13.136;2022-09-16T00:31:38;98512.63;;;16.62;60.74
54329;BME280;40710;51.120;13.136;2022-09-16T00:34:02;98520.59;;;16.53;60.41
54329;BME280;40710;51.120;13.136;2022-09-16T00:36:27;98526.03;;;16.51;60.50
54329;BME280;40710;51.120;13.136;2022-09-16T00:38:53;98529.53;;;16.52;60.74
54329;BME280;40710;51.120;13.136;2022-09-16T00:41:26;98525.75;;;16.54;60.47
54329;BME280;40710;51.120;13.136;2022-09-16T00:46:18;98519.31;;;16.37;60.71
54329;BME280;40710;51.120;13.136;2022-09-16T00:48:44;98525.19;;;16.31;60.69
54329;BME280;40710;51.120;13.136;2022-09-16T00:51:09;98523.53;;;16.40;60.63
54329;BME280;40710;51.120;13.136;2022-09-16T00:53:41;98521.28;;;16.35;60.56
54329;BME280;40710;51.120;13.136;2022-09-16T00:56:09;98519.03;;;16.21;60.36
54329;BME280;40710;51.120;13.136;2022-09-16T00:58:43;98516.97;;;16.24;60.52
54329;BME280;40710;51.120;13.136;2022-09-16T01:01:08;98519.06;;;16.31;60.42
54329;BME280;40710;51.120;13.136;2022-09-16T01:03:38;98519.03;;;16.21;60.52
54329;BME280;40710;51.120;13.136;2022-09-16T01:06:06;98522.81;;;16.28;60.21
54329;BME280;40710;51.120;13.136;2022-09-16T01:08:31;98524.50;;;16.29;60.29
54329;BME280;40710;51.120;13.136;2022-09-16T01:10:55;98526.59;;;16.35;60.14
54329;BME280;40710;51.120;13.136;2022-09-16T01:13:21;98525.63;;;16.36;60.25
54329;BME280;40710;51.120;13.136;2022-09-16T01:18:40;98531.19;;;16.33;60.11
54329;BME280;40710;51.120;13.136;2022-09-16T01:27:13;98528.44;;;16.44;59.92
54329;BME280;40710;51.120;13.136;2022-09-16T01:30:12;98527.13;;;16.58;60.00
54329;BME280;40710;51.120;13.136;2022-09-16T01:32:46;98524.78;;;16.45;60.05
54329;BME280;40710;51.120;13.136;2022-09-16T01:35:26;98523.78;;;16.56;59.87
54329;BME280;40710;51.120;13.136;2022-09-16T01:40:48;98532.19;;;16.52;60.35
54329;BME280;40710;51.120;13.136;2022-09-16T01:43:23;98537.91;;;16.47;60.16
54329;BME280;40710;51.120;13.136;2022-09-16T01:45:56;98535.66;;;16.52;60.08
54329;BME280;40710;51.120;13.136;2022-09-16T01:48:34;98534.84;;;16.52;60.33
54329;BME280;40710;51.120;13.136;2022-09-16T01:53:50;98524.50;;;16.29;60.82
54329;BME280;40710;51.120;13.136;2022-09-16T01:56:30;98532.19;;;16.52;60.50
54329;BME280;40710;51.120;13.136;2022-09-16T01:59:02;98525.06;;;16.42;60.53
54329;BME280;40710;51.120;13.136;2022-09-16T02:01:35;98520.19;;;16.57;60.58
54329;BME280;40710;51.120;13.136;2022-09-16T02:04:05;98519.63;;;16.34;61.20
54329;BME280;40710;51.120;13.136;2022-09-16T02:06:35;98512.34;;;16.75;60.27
54329;BME280;40710;51.120;13.136;2022-09-16T02:09:07;98518.50;;;16.47;60.79
54329;BME280;40710;51.120;13.136;2022-09-16T02:11:34;98514.59;;;16.51;60.65
54329;BME280;40710;51.120;13.136;2022-09-16T02:14:24;98515.13;;;16.74;60.43
54329;BME280;40710;51.120;13.136;2022-09-16T02:17:03;98519.88;;;16.70;60.62
54329;BME280;40710;51.120;13.136;2022-09-16T02:19:36;98508.16;;;16.73;60.56
54329;BME280;40710;51.120;13.136;2022-09-16T02:22:07;98511.22;;;16.68;60.67
54329;BME280;40710;51.120;13.136;2022-09-16T02:24:32;98521.84;;;16.68;60.49
54329;BME280;40710;51.120;13.136;2022-09-16T02:27:01;98509.13;;;16.81;59.86
54329;BME280;40710;51.120;13.136;2022-09-16T02:29:36;98514.03;;;16.67;60.11
54329;BME280;40710;51.120;13.136;2022-09-16T02:32:01;98512.91;;;16.69;60.13
54329;BME280;40710;51.120;13.136;2022-09-16T02:34:33;98510.09;;;16.80;60.02
54329;BME280;40710;51.120;13.136;2022-09-16T02:37:05;98511.09;;;16.79;60.22
54329;BME280;40710;51.120;13.136;2022-09-16T02:39:35;98507.47;;;16.90;59.80
54329;BME280;40710;51.120;13.136;2022-09-16T02:42:01;98510.25;;;16.89;59.80
54329;BME280;40710;51.120;13.136;2022-09-16T02:44:26;98508.44;;;16.79;59.98
54329;BME280;40710;51.120;13.136;2022-09-16T02:47:04;98507.06;;;16.85;59.49
54329;BME280;40710;51.120;13.136;2022-09-16T02:49:39;98507.59;;;16.89;59.51
54329;BME280;40710;51.120;13.136;2022-09-16T02:52:20;98513.34;;;16.74;59.76
54329;BME280;40710;51.120;13.136;2022-09-16T02:54:59;98513.56;;;16.81;59.94
54329;BME280;40710;51.120;13.136;2022-09-16T02:57:24;98516.00;;;16.45;60.24
54329;BME280;40710;51.120;13.136;2022-09-16T02:59:49;98515.00;;;16.56;60.44
54329;BME280;40710;51.120;13.136;2022-09-16T03:02:13;98516.38;;;16.60;60.24
54329;BME280;40710;51.120;13.136;2022-09-16T03:04:38;98520.47;;;16.44;60.32
54329;BME280;40710;51.120;13.136;2022-09-16T03:07:05;98518.63;;;16.35;60.32
54329;BME280;40710;51.120;13.136;2022-09-16T03:09:33;98524.09;;;16.53;59.94
54329;BME280;40710;51.120;13.136;2022-09-16T03:12:11;98526.88;;;16.52;59.57
54329;BME280;40710;51.120;13.136;2022-09-16T03:14:45;98518.38;;;16.48;59.84
54329;BME280;40710;51.120;13.136;2022-09-16T03:17:35;98527.28;;;16.37;60.18
54329;BME280;40710;51.120;13.136;2022-09-16T03:22:46;98522.41;;;16.42;59.62
54329;BME280;40710;51.120;13.136;2022-09-16T03:30:31;98522.00;;;16.57;59.71
54329;BME280;40710;51.120;13.136;2022-09-16T03:33:01;98521.97;;;16.86;59.55
54329;BME280;40710;51.120;13.136;2022-09-16T03:35:33;98514.16;;;16.85;59.45
54329;BME280;40710;51.120;13.136;2022-09-16T03:38:02;98510.69;;;16.74;59.47
54329;BME280;40710;51.120;13.136;2022-09-16T03:40:28;98516.53;;;16.88;58.84
54329;BME280;40710;51.120;13.136;2022-09-16T03:42:56;98513.88;;;16.78;59.14
54329;BME280;40710;51.120;13.136;2022-09-16T03:45:21;98511.09;;;16.70;59.14
54329;BME280;40710;51.120;13.136;2022-09-16T03:47:47;98517.09;;;16.81;59.21
54329;BME280;40710;51.120;13.136;2022-09-16T03:50:12;98515.84;;;16.86;59.07
54329;BME280;40710;51.120;13.136;2022-09-16T03:52:39;98520.16;;;16.67;59.42
54329;BME280;40710;51.120;13.136;2022-09-16T03:55:03;98524.22;;;16.52;59.62
54329;BME280;40710;51.120;13.136;2022-09-16T03:57:28;98516.09;;;16.82;59.17
54329;BME280;40710;51.120;13.136;2022-09-16T03:59:53;98512.47;;;16.74;59.15
54329;BME280;40710;51.120;13.136;2022-09-16T04:02:18;98518.19;;;16.79;58.87
54329;BME280;40710;51.120;13.136;2022-09-16T04:04:42;98504.69;;;16.92;58.67
54329;BME280;40710;51.120;13.136;2022-09-16T04:07:06;98510.13;;;16.51;59.36
54329;BME280;40710;51.120;13.136;2022-09-16T04:09:31;98512.59;;;16.72;59.35
54329;BME280;40710;51.120;13.136;2022-09-16T04:11:55;98515.25;;;16.72;58.96
54329;BME280;40710;51.120;13.136;2022-09-16T04:14:19;98519.19;;;16.68;58.78
54329;BME280;40710;51.120;13.136;2022-09-16T04:16:44;98513.75;;;16.79;58.62
54329;BME280;40710;51.120;13.136;2022-09-16T04:19:10;98514.56;;;16.90;58.28
54329;BME280;40710;51.120;13.136;2022-09-16T04:21:36;98509.00;;;16.83;58.47
54329;BME280;40710;51.120;13.136;2022-09-16T04:24:00;98505.38;;;16.74;58.25
54329;BME280;40710;51.120;13.136;2022-09-16T04:26:25;98521.84;;;16.68;58.75
54329;BME280;40710;51.120;13.136;2022-09-16T04:28:51;98520.16;;;16.67;58.70
54329;BME280;40710;51.120;13.136;2022-09-16T04:31:16;98518.91;;;16.71;58.64
54329;BME280;40710;51.120;13.136;2022-09-16T04:33:41;98512.19;;;16.67;58.42
54329;BME280;40710;51.120;13.136;2022-09-16T04:36:11;98513.06;;;16.68;58.40
54329;BME280;40710;51.120;13.136;2022-09-16T04:38:35;98509.81;;;16.74;58.27
54329;BME280;40710;51.120;13.136;2022-09-16T04:41:02;98512.78;;;16.71;58.45
54329;BME280;40710;51.120;13.136;2022-09-16T04:43:27;98509.00;;;16.73;58.46
54329;BME280;40710;51.120;13.136;2022-09-16T04:45:51;98512.88;;;16.79;58.23
54329;BME280;40710;51.120;13.136;2022-09-16T04:48:15;98505.38;;;16.74;58.30
54329;BME280;40710;51.120;13.136;2022-09-16T04:50:41;98511.81;;;16.62;58.45
54329;BME280;40710;51.120;13.136;2022-09-16T04:53:05;98502.03;;;16.62;58.43
54329;BME280;40710;51.120;13.136;2022-09-16T04:55:30;98498.25;;;16.65;58.60
54329;BME280;40710;51.120;13.136;2022-09-16T04:57:54;98500.47;;;16.70;58.66
54329;BME280;40710;51.120;13.136;2022-09-16T05:00:19;98505.66;;;16.71;58.51
54329;BME280;40710;51.120;13.136;2022-09-16T05:02:44;98521.00;;;16.68;59.00
54329;BME280;40710;51.120;13.136;2022-09-16T05:05:09;98509.97;;;16.72;58.77
54329;BME280;40710;51.120;13.136;2022-09-16T05:07:33;98516.13;;;16.43;59.43
54329;BME280;40710;51.120;13.136;2022-09-16T05:09:57;98517.94;;;16.53;59.53
54329;BME280;40710;51.120;13.136;2022-09-16T05:12:22;98520.59;;;16.53;59.40
54329;BME280;40710;51.120;13.136;2022-09-16T05:14:46;98515.69;;;16.77;59.09
54329;BME280;40710;51.120;13.136;2022-09-16T05:17:10;98517.91;;;16.72;59.14
54329;BME280;40710;51.120;13.136;2022-09-16T05:19:35;98523.25;;;16.53;59.73
54329;BME280;40710;51.120;13.136;2022-09-16T05:21:59;98516.94;;;16.73;59.50
54329;BME280;40710;51.120;13.136;2022-09-16T05:24:25;98512.59;;;16.72;59.56
54329;BME280;40710;51.120;13.136;2022-09-16T05:26:50;98521.69;;;16.60;59.46
54329;BME280;40710;51.120;13.136;2022-09-16T05:29:15;98527.41;;;16.65;59.62
54329;BME280;40710;51.120;13.136;2022-09-16T05:31:41;98526.88;;;16.71;59.49
54329;BME280;40710;51.120;13.136;2022-09-16T05:34:11;98521.28;;;16.64;59.63
54329;BME280;40710;51.120;13.136;2022-09-16T05:36:36;98525.91;;;16.62;59.88
54329;BME280;40710;51.120;13.136;2022-09-16T05:39:02;98530.06;;;16.65;59.95
54329;BME280;40710;51.120;13.136;2022-09-16T05:41:26;98527.41;;;16.65;60.19
54329;BME280;40710;51.120;13.136;2022-09-16T05:43:51;98534.41;;;16.47;60.22
54329;BME280;40710;51.120;13.136;2022-09-16T05:46:19;98538.75;;;16.57;60.29
54329;BME280;40710;51.120;13.136;2022-09-16T05:48:44;98539.00;;;16.54;60.17
54329;BME280;40710;51.120;13.136;2022-09-16T05:51:09;98534.25;;;16.19;60.95
54329;BME280;40710;51.120;13.136;2022-09-16T05:53:36;98530.78;;;16.48;60.22
54329;BME280;40710;51.120;13.136;2022-09-16T05:56:06;98537.22;;;16.45;60.46
54329;BME280;40710;51.120;13.136;2022-09-16T05:58:33;98532.03;;;16.43;60.04
54329;BME280;40710;51.120;13.136;2022-09-16T06:01:10;98530.50;;;16.70;59.79
54329;BME280;40710;51.120;13.136;2022-09-16T06:03:37;98530.06;;;16.65;59.97
54329;BME280;40710;51.120;13.136;2022-09-16T06:06:05;98531.34;;;16.51;60.31
54329;BME280;40710;51.120;13.136;2022-09-16T06:08:31;98533.84;;;16.33;60.76
54329;BME280;40710;51.120;13.136;2022-09-16T06:10:59;98532.88;;;16.34;60.78
54329;BME280;40710;51.120;13.136;2022-09-16T06:13:24;98533.88;;;16.43;60.31
54329;BME280;40710;51.120;13.136;2022-09-16T06:15:49;98535.69;;;16.62;60.20
54329;BME280;40710;51.120;13.136;2022-09-16T06:18:14;98543.97;;;15.89;61.83
54329;BME280;40710;51.120;13.136;2022-09-16T06:20:39;98547.09;;;15.73;62.35
54329;BME280;40710;51.120;13.136;2022-09-16T06:23:03;98548.16;;;15.61;62.81
54329;BME280;40710;51.120;13.136;2022-09-16T06:25:28;98538.88;;;16.36;60.98
54329;BME280;40710;51.120;13.136;2022-09-16T06:27:52;98538.44;;;16.21;61.46
54329;BME280;40710;51.120;13.136;2022-09-16T06:30:17;98534.72;;;16.53;60.54
54329;BME280;40710;51.120;13.136;2022-09-16T06:32:41;98523.22;;;16.72;59.85
54329;BME280;40710;51.120;13.136;2022-09-16T06:35:06;98524.91;;;16.83;59.19
54329;BME280;40710;51.120;13.136;2022-09-16T06:37:31;98519.88;;;16.80;59.73
54329;BME280;40710;51.120;13.136;2022-09-16T06:39:55;98520.28;;;17.05;59.07
54329;BME280;40710;51.120;13.136;2022-09-16T06:42:19;98527.84;;;16.90;58.83
54329;BME280;40710;51.120;13.136;2022-09-16T06:44:44;98521.56;;;17.00;58.52
54329;BME280;40710;51.120;13.136;2022-09-16T06:47:08;98518.47;;;17.05;58.45
54329;BME280;40710;51.120;13.136;2022-09-16T06:49:33;98520.41;;;17.13;58.24
54329;BME280;40710;51.120;13.136;2022-09-16T06:51:57;98513.19;;;17.43;57.46
54329;BME280;40710;51.120;13.136;2022-09-16T06:54:21;98517.72;;;17.23;57.78
54329;BME280;40710;51.120;13.136;2022-09-16T06:56:46;98506.06;;;17.33;57.08
54329;BME280;40710;51.120;13.136;2022-09-16T06:59:10;98507.75;;;17.34;57.05
54329;BME280;40710;51.120;13.136;2022-09-16T07:01:37;98510.06;;;17.47;56.65
54329;BME280;40710;51.120;13.136;2022-09-16T07:04:04;98501.78;;;17.60;56.11
54329;BME280;40710;51.120;13.136;2022-09-16T07:06:29;98512.00;;;17.55;55.71
54329;BME280;40710;51.120;13.136;2022-09-16T07:08:54;98507.31;;;17.67;55.55
54329;BME280;40710;51.120;13.136;2022-09-16T07:11:20;98505.81;;;17.92;55.04
54329;BME280;40710;51.120;13.136;2022-09-16T07:13:46;98505.81;;;17.92;55.16
54329;BME280;40710;51.120;13.136;2022-09-16T07:16:13;98506.25;;;17.60;54.77
54329;BME280;40710;51.120;13.136;2022-09-16T07:18:38;98516.47;;;17.82;54.62
54329;BME280;40710;51.120;13.136;2022-09-16T07:21:04;98513.38;;;17.59;55.13
54329;BME280;40710;51.120;13.136;2022-09-16T07:23:30;98506.81;;;17.91;53.99
54329;BME280;40710;51.120;13.136;2022-09-16T07:26:03;98504.69;;;17.94;53.82
54329;BME280;40710;51.120;13.136;2022-09-16T07:28:28;98513.19;;;17.98;53.63
54329;BME280;40710;51.120;13.136;2022-09-16T07:30:54;98517.94;;;17.67;54.24
54329;BME280;40710;51.120;13.136;2022-09-16T07:33:18;98518.63;;;17.41;54.43
54329;BME280;40710;51.120;13.136;2022-09-16T07:35:43;98512.56;;;17.86;54.23
54329;BME280;40710;51.120;13.136;2022-09-16T07:38:07;98509.19;;;18.12;54.21
54329;BME280;40710;51.120;13.136;2022-09-16T07:40:32;98508.78;;;18.07;53.28
54329;BME280;40710;51.120;13.136;2022-09-16T07:42:57;98513.41;;;17.87;53.62
54329;BME280;40710;51.120;13.136;2022-09-16T07:45:21;98511.75;;;18.04;53.58
54329;BME280;40710;51.120;13.136;2022-09-16T07:47:48;98509.47;;;18.09;53.03
54329;BME280;40710;51.120;13.136;2022-09-16T07:50:12;98507.16;;;18.24;53.29
54329;BME280;40710;51.120;13.136;2022-09-16T07:52:37;98510.19;;;18.11;53.26
54329;BME280;40710;51.120;13.136;2022-09-16T07:55:01;98496.13;;;18.37;52.60
54329;BME280;40710;51.120;13.136;2022-09-16T07:57:25;98507.28;;;18.04;53.00
54329;BME280;40710;51.120;13.136;2022-09-16T07:59:50;98498.47;;;18.40;52.20
54329;BME280;40710;51.120;13.136;2022-09-16T08:02:14;98491.75;;;18.71;51.74
54329;BME280;40710;51.120;13.136;2022-09-16T08:04:39;98485.50;;;18.81;51.35
54329;BME280;40710;51.120;13.136;2022-09-16T08:07:05;98484.53;;;19.08;50.66
54329;BME280;40710;51.120;13.136;2022-09-16T08:09:29;98475.81;;;19.24;49.95
54329;BME280;40710;51.120;13.136;2022-09-16T08:11:54;98487.81;;;19.02;49.97
54329;BME280;40710;51.120;13.136;2022-09-16T08:14:18;98478.31;;;19.25;49.92
54329;BME280;40710;51.120;13.136;2022-09-16T08:16:42;98490.63;;;19.26;49.85
54329;BME280;40710;51.120;13.136;2022-09-16T08:19:07;98483.06;;;19.14;50.09
54329;BME280;40710;51.120;13.136;2022-09-16T08:21:32;98476.66;;;18.98;49.60
54329;BME280;40710;51.120;13.136;2022-09-16T08:23:57;98487.94;;;18.92;50.01
54329;BME280;40710;51.120;13.136;2022-09-16T08:26:22;98485.19;;;19.36;49.68
54329;BME280;40710;51.120;13.136;2022-09-16T08:28:47;98487.38;;;19.41;49.23
54329;BME280;40710;51.120;13.136;2022-09-16T08:31:12;98486.94;;;19.54;49.43
54329;BME280;40710;51.120;13.136;2022-09-16T08:33:41;98494.09;;;19.19;49.33
54329;BME280;40710;51.120;13.136;2022-09-16T08:38:35;98489.31;;;19.65;48.78
54329;BME280;40710;51.120;13.136;2022-09-16T08:41:06;98495.13;;;19.26;49.23
54329;BME280;40710;51.120;13.136;2022-09-16T08:43:44;98485.94;;;19.20;49.44
54329;BME280;40710;51.120;13.136;2022-09-16T08:46:21;98486.78;;;19.21;49.63
54329;BME280;40710;51.120;13.136;2022-09-16T08:48:59;98487.41;;;18.70;49.89
54329;BME280;40710;51.120;13.136;2022-09-16T08:51:26;98482.47;;;18.94;49.90
54329;BME280;40710;51.120;13.136;2022-09-16T08:54:03;98489.19;;;18.44;50.93
54329;BME280;40710;51.120;13.136;2022-09-16T08:56:32;98494.19;;;19.09;49.78
54329;BME280;40710;51.120;13.136;2022-09-16T08:59:00;98483.91;;;19.14;49.17
54329;BME280;40710;51.120;13.136;2022-09-16T09:01:33;98478.31;;;19.25;48.06
54329;BME280;40710;51.120;13.136;2022-09-16T09:03:59;98484.69;;;19.33;48.75
54329;BME280;40710;51.120;13.136;2022-09-16T09:06:40;98480.81;;;19.27;49.20
54329;BME280;40710;51.120;13.136;2022-09-16T09:09:24;98475.97;;;19.57;48.94
54329;BME280;40710;51.120;13.136;2022-09-16T09:12:07;98484.53;;;19.34;49.24
54329;BME280;40710;51.120;13.136;2022-09-16T09:14:37;98469.97;;;19.63;48.92
54329;BME280;40710;51.120;13.136;2022-09-16T09:17:23;98473.00;;;19.68;48.68
54329;BME280;40710;51.120;13.136;2022-09-16T09:23:18;98475.97;;;19.22;49.20
54329;BME280;40710;51.120;13.136;2022-09-16T09:26:00;98476.94;;;18.87;49.90
54329;BME280;40710;51.120;13.136;2022-09-16T09:31:25;98460.59;;;19.42;47.90
54329;BME280;40710;51.120;13.136;2022-09-16T09:36:57;98456.75;;;19.79;48.41
54329;BME280;40710;51.120;13.136;2022-09-16T09:42:23;98465.91;;;19.42;48.65
54329;BME280;40710;51.120;13.136;2022-09-16T09:45:04;98467.13;;;19.56;48.22
54329;BME280;40710;51.120;13.136;2022-09-16T09:47:33;98468.91;;;19.48;47.88
54329;BME280;40710;51.120;13.136;2022-09-16T09:55:32;98452.69;;;20.67;47.00
54329;BME280;40710;51.120;13.136;2022-09-16T10:01:02;98467.53;;;19.01;49.15
54329;BME280;40710;51.120;13.136;2022-09-16T10:03:29;98464.38;;;19.05;49.57
54329;BME280;40710;51.120;13.136;2022-09-16T10:05:54;98451.94;;;19.14;48.55
54329;BME280;40710;51.120;13.136;2022-09-16T10:11:14;98432.81;;;20.29;46.47
54329;BME280;40710;51.120;13.136;2022-09-16T10:13:46;98423.66;;;20.23;45.66
54329;BME280;40710;51.120;13.136;2022-09-16T10:16:14;98432.78;;;19.96;46.32
54329;BME280;40710;51.120;13.136;2022-09-16T10:18:41;98436.59;;;19.42;47.20
54329;BME280;40710;51.120;13.136;2022-09-16T10:21:12;98452.69;;;19.67;46.99
54329;BME280;40710;51.120;13.136;2022-09-16T10:23:37;98478.84;;;19.29;49.17
54329;BME280;40710;51.120;13.136;2022-09-16T10:26:23;98478.84;;;19.03;51.01
54329;BME280;40710;51.120;13.136;2022-09-16T10:29:10;98492.94;;;18.77;53.19
54329;BME280;40710;51.120;13.136;2022-09-16T10:31:37;98488.34;;;18.61;53.05
54329;BME280;40710;51.120;13.136;2022-09-16T10:34:04;98475.31;;;18.94;52.06
54329;BME280;40710;51.120;13.136;2022-09-16T10:36:36;98484.44;;;19.52;53.79
54329;BME280;40710;51.120;13.136;2022-09-16T10:39:01;98467.84;;;20.83;51.27
54329;BME280;40710;51.120;13.136;2022-09-16T10:41:29;98459.69;;;22.03;49.22
54329;BME280;40710;51.120;13.136;2022-09-16T10:43:58;98454.56;;;22.25;47.77
54329;BME280;40710;51.120;13.136;2022-09-16T10:46:23;98446.34;;;21.24;47.75
54329;BME280;40710;51.120;13.136;2022-09-16T10:48:49;98452.25;;;21.11;48.23
54329;BME280;40710;51.120;13.136;2022-09-16T10:51:24;98442.34;;;21.99;48.22
54329;BME280;40710;51.120;13.136;2022-09-16T10:53:54;98435.06;;;22.77;45.52
54329;BME280;40710;51.120;13.136;2022-09-16T10:56:22;98434.63;;;23.33;45.19
54329;BME280;40710;51.120;13.136;2022-09-16T10:58:47;98423.81;;;23.27;43.60
54329;BME280;40710;51.120;13.136;2022-09-16T11:06:46;98436.28;;;22.90;39.58
54329;BME280;40710;51.120;13.136;2022-09-16T11:09:31;98430.66;;;22.00;41.78
54329;BME280;40710;51.120;13.136;2022-09-16T11:17:51;98420.41;;;24.70;38.03
54329;BME280;40710;51.120;13.136;2022-09-16T11:20:43;98419.31;;;24.43;38.65
54329;BME280;40710;51.120;13.136;2022-09-16T11:23:24;98420.19;;;24.50;38.82
54329;BME280;40710;51.120;13.136;2022-09-16T11:26:12;98427.88;;;23.89;38.48
54329;BME280;40710;51.120;13.136;2022-09-16T11:28:49;98435.34;;;23.57;39.84
54329;BME280;40710;51.120;13.136;2022-09-16T11:34:23;98409.81;;;23.97;37.79
54329;BME280;40710;51.120;13.136;2022-09-16T11:42:33;98411.16;;;24.08;38.23
54329;BME280;40710;51.120;13.136;2022-09-16T11:45:47;98412.44;;;24.34;38.32
54329;BME280;40710;51.120;13.136;2022-09-16T11:48:46;98408.38;;;23.29;38.87
54329;BME280;40710;51.120;13.136;2022-09-16T11:57:01;98390.75;;;23.92;39.00
54329;BME280;40710;51.120;13.136;2022-09-16T11:59:42;98390.19;;;24.19;38.28
54329;BME280;40710;51.120;13.136;2022-09-16T12:02:27;98392.72;;;24.05;38.77
54329;BME280;40710;51.120;13.136;2022-09-16T12:05:12;98389.50;;;23.88;38.73
54329;BME280;40710;51.120;13.136;2022-09-16T12:07:53;98383.38;;;23.58;38.61
54329;BME280;40710;51.120;13.136;2022-09-16T12:12:53;98370.41;;;23.62;39.03
54329;BME280;40710;51.120;13.136;2022-09-16T12:15:27;98367.00;;;24.11;37.61
54329;BME280;40710;51.120;13.136;2022-09-16T12:17:55;98363.47;;;23.89;37.55
54329;BME280;40710;51.120;13.136;2022-09-16T12:20:30;98373.03;;;23.91;38.02
54329;BME280;40710;51.120;13.136;2022-09-16T12:23:24;98382.47;;;22.91;38.72
54329;BME280;40710;51.120;13.136;2022-09-16T12:26:03;98367.19;;;23.51;38.09
54329;BME280;40710;51.120;13.136;2022-09-16T12:28:47;98356.72;;;24.14;38.10
54329;BME280;40710;51.120;13.136;2022-09-16T12:31:20;98361.47;;;24.41;35.93
54329;BME280;40710;51.120;13.136;2022-09-16T12:33:51;98355.22;;;24.97;35.29
54329;BME280;40710;51.120;13.136;2022-09-16T12:36:22;98352.06;;;25.28;35.02
54329;BME280;40710;51.120;13.136;2022-09-16T12:38:48;98363.69;;;24.94;35.21
54329;BME280;40710;51.120;13.136;2022-09-16T12:41:44;98375.78;;;24.76;34.70
54329;BME280;40710;51.120;13.136;2022-09-16T12:44:45;98367.38;;;25.27;34.91
54329;BME280;40710;51.120;13.136;2022-09-16T12:50:44;98364.41;;;25.16;34.15
54329;BME280;40710;51.120;13.136;2022-09-16T12:59:04;98352.44;;;25.18;33.80
54329;BME280;40710;51.120;13.136;2022-09-16T13:01:49;98362.06;;;25.41;33.92
54329;BME280;40710;51.120;13.136;2022-09-16T13:04:18;98353.75;;;24.94;33.51
54329;BME280;40710;51.120;13.136;2022-09-16T13:06:52;98361.44;;;24.97;33.56
54329;BME280;40710;51.120;13.136;2022-09-16T13:09:34;98363.09;;;24.98;34.93
54329;BME280;40710;51.120;13.136;2022-09-16T13:12:02;98374.47;;;24.65;35.09
54329;BME280;40710;51.120;13.136;2022-09-16T13:14:32;98380.66;;;24.38;34.07
54329;BME280;40710;51.120;13.136;2022-09-16T13:17:00;98396.16;;;23.26;37.47
54329;BME280;40710;51.120;13.136;2022-09-16T13:19:36;98406.94;;;22.73;39.67
54329;BME280;40710;51.120;13.136;2022-09-16T13:22:28;98408.03;;;22.03;41.07
54329;BME280;40710;51.120;13.136;2022-09-16T13:25:06;98402.25;;;22.75;42.19
54329;BME280;40710;51.120;13.136;2022-09-16T13:27:35;98391.56;;;23.05;39.90
54329;BME280;40710;51.120;13.136;2022-09-16T13:30:14;98392.94;;;23.01;40.11
54329;BME280;40710;51.120;13.136;2022-09-16T13:32:55;98382.59;;;23.28;38.88
54329;BME280;40710;51.120;13.136;2022-09-16T13:35:24;98370.53;;;23.53;37.13
54329;BME280;40710;51.120;13.136;2022-09-16T13:37:58;98372.59;;;23.73;36.35
54329;BME280;40710;51.120;13.136;2022-09-16T13:40:26;98377.16;;;23.57;35.94
54329;BME280;40710;51.120;13.136;2022-09-16T13:45:35;98345.19;;;24.49;33.20
54329;BME280;40710;51.120;13.136;2022-09-16T13:48:08;98345.66;;;24.87;33.98
54329;BME280;40710;51.120;13.136;2022-09-16T13:50:33;98349.34;;;25.21;33.88
54329;BME280;40710;51.120;13.136;2022-09-16T13:53:08;98333.31;;;24.93;31.79
54329;BME280;40710;51.120;13.136;2022-09-16T13:55:33;98345.38;;;25.17;31.33
54329;BME280;40710;51.120;13.136;2022-09-16T13:58:08;98339.78;;;24.70;31.06
54329;BME280;40710;51.120;13.136;2022-09-16T14:00:47;98333.69;;;24.90;31.55
54329;BME280;40710;51.120;13.136;2022-09-16T14:03:35;98340.47;;;24.79;30.43
54329;BME280;40710;51.120;13.136;2022-09-16T14:09:15;98329.91;;;24.78;30.02
54329;BME280;40710;51.120;13.136;2022-09-16T14:12:22;98327.69;;;25.36;30.54
54329;BME280;40710;51.120;13.136;2022-09-16T14:14:48;98333.31;;;24.93;30.73
54329;BME280;40710;51.120;13.136;2022-09-16T14:17:16;98325.91;;;25.08;30.61
54329;BME280;40710;51.120;13.136;2022-09-16T14:19:43;98334.41;;;25.12;31.19
54329;BME280;40710;51.120;13.136;2022-09-16T14:24:36;98333.81;;;24.47;32.25
54329;BME280;40710;51.120;13.136;2022-09-16T14:27:01;98328.38;;;25.03;31.39
54329;BME280;40710;51.120;13.136;2022-09-16T14:29:25;98324.28;;;25.21;31.81
54329;BME280;40710;51.120;13.136;2022-09-16T14:31:53;98322.59;;;25.61;31.79
54329;BME280;40710;51.120;13.136;2022-09-16T14:36:48;98331.31;;;25.15;31.55
54329;BME280;40710;51.120;13.136;2022-09-16T14:39:14;98331.88;;;24.62;32.69
54329;BME280;40710;51.120;13.136;2022-09-16T14:41:50;98329.88;;;25.13;32.27